createdAt,value
2023-01-30T00:08:34.493Z,13.57
2023-01-30T00:18:37.542Z,12.93
2023-01-30T00:28:42.129Z,12.50
2023-01-30T00:38:44.206Z,12.23
2023-01-30T00:48:46.439Z,12.20
2023-01-30T00:58:55.802Z,12.67
2023-01-30T01:09:01.391Z,12.03
2023-01-30T01:19:07.532Z,11.93
2023-01-30T01:29:15.624Z,8.67
2023-01-30T01:39:17.767Z,7.43
2023-01-30T01:49:34.940Z,9.43
2023-01-30T01:59:47.599Z,8.80
2023-01-30T02:09:53.532Z,7.30
2023-01-30T02:20:05.375Z,5.73
2023-01-30T02:30:15.352Z,8.27
2023-01-30T02:40:36.320Z,8.83
2023-01-30T02:50:50.551Z,8.83
2023-01-30T03:01:07.192Z,7.60
2023-01-30T03:11:12.144Z,7.60
2023-01-30T03:21:15.864Z,8.83
2023-01-30T03:31:20.547Z,6.93
2023-01-30T03:41:24.935Z,8.50
2023-01-30T03:51:32.320Z,7.43
2023-01-30T04:01:39.750Z,8.07
2023-01-30T04:11:45.116Z,6.73
2023-01-30T04:21:52.375Z,9.93
2023-01-30T04:31:55.741Z,6.43
2023-01-30T04:42:06.222Z,8.90
2023-01-30T04:52:17.244Z,6.00
2023-01-30T05:02:22.400Z,5.77
2023-01-30T05:12:27.887Z,5.10
2023-01-30T05:22:34.524Z,7.03
2023-01-30T05:32:38.827Z,6.93
2023-01-30T05:42:45.771Z,6.03
2023-01-30T05:52:52.317Z,6.67
2023-01-30T06:02:54.512Z,3.80
2023-01-30T06:13:01.333Z,7.27
2023-01-30T06:23:08.276Z,5.30
2023-01-30T06:33:12.643Z,5.33
2023-01-30T06:43:17.977Z,4.90
2023-01-30T06:53:32.612Z,5.93
2023-01-30T07:03:42.061Z,6.63
2023-01-30T07:13:45.038Z,5.27
2023-01-30T07:23:52.078Z,6.80
2023-01-30T07:33:54.207Z,5.30
2023-01-30T07:43:56.573Z,7.93
2023-01-30T07:53:58.866Z,6.57
2023-01-30T08:04:01.033Z,12.87
2023-01-30T08:14:05.602Z,8.67
2023-01-30T08:24:08.091Z,6.97
2023-01-30T08:34:13.208Z,10.20
2023-01-30T08:44:17.649Z,10.10
2023-01-30T08:54:30.558Z,9.70
2023-01-30T09:04:36.411Z,9.63
2023-01-30T09:14:41.000Z,8.87
2023-01-30T09:24:45.189Z,9.47
2023-01-30T09:34:51.799Z,9.47
2023-01-30T09:45:30.618Z,8.97
2023-01-30T09:55:36.185Z,10.73
2023-01-30T10:05:48.646Z,11.13
2023-01-30T10:15:56.575Z,10.50
2023-01-30T10:26:11.273Z,9.87
2023-01-30T10:36:42.614Z,11.77
2023-01-30T10:46:57.225Z,8.97
2023-01-30T10:57:08.164Z,10.27
2023-01-30T11:07:12.857Z,12.93
2023-01-30T11:17:19.936Z,12.27
2023-01-30T11:27:33.853Z,9.40
2023-01-30T11:37:45.983Z,10.27
2023-01-30T11:47:59.330Z,10.13
2023-01-30T11:58:09.524Z,8.07
2023-01-30T12:08:40.268Z,9.83
2023-01-30T12:18:57.282Z,9.00
2023-01-30T12:29:02.389Z,6.90
2023-01-30T12:39:08.617Z,9.47
2023-01-30T12:49:33.559Z,9.73
2023-01-30T13:00:05.999Z,8.67
2023-01-30T13:10:19.213Z,10.47
2023-01-30T13:20:45.891Z,10.77
2023-01-30T13:30:51.748Z,10.60
2023-01-30T13:40:59.736Z,11.57
2023-01-30T13:51:23.865Z,11.67
2023-01-30T14:01:59.452Z,10.70
2023-01-30T14:12:04.066Z,14.03
2023-01-30T14:22:19.456Z,16.77
2023-01-30T14:32:27.621Z,11.60
2023-01-30T14:42:33.701Z,12.43
2023-01-30T14:52:42.451Z,12.33
2023-01-30T15:02:51.466Z,12.67
2023-01-30T15:13:16.415Z,12.80
2023-01-30T15:23:30.152Z,12.17
2023-01-30T15:33:32.766Z,13.13
2023-01-30T15:44:03.095Z,11.70
2023-01-30T15:54:11.672Z,11.77
2023-01-30T16:04:30.711Z,10.47
2023-01-30T16:14:38.070Z,11.07
2023-01-30T16:24:44.414Z,9.53
2023-01-30T16:34:48.988Z,10.40
2023-01-30T16:44:51.096Z,9.73
2023-01-30T16:55:01.094Z,9.53
2023-01-30T17:05:15.399Z,11.03
2023-01-30T17:15:17.920Z,9.90
2023-01-30T17:25:30.708Z,9.63
2023-01-30T17:35:35.038Z,9.20
2023-01-30T17:45:42.075Z,8.83
2023-01-30T17:55:44.234Z,8.50
2023-01-30T18:05:46.638Z,9.70
2023-01-30T18:16:00.158Z,10.00
2023-01-30T18:26:04.915Z,9.13
2023-01-30T18:36:09.710Z,7.63
2023-01-30T18:46:18.359Z,8.67
2023-01-30T18:56:27.915Z,6.30
2023-01-30T19:06:43.887Z,7.57
2023-01-30T19:16:45.973Z,7.67
2023-01-30T19:26:52.616Z,8.30
2023-01-30T19:36:57.020Z,6.70
2023-01-30T19:47:06.309Z,8.00
2023-01-30T19:57:08.572Z,5.77
2023-01-30T20:07:10.613Z,7.53
2023-01-30T20:17:14.400Z,8.33
2023-01-30T20:27:17.312Z,7.87
2023-01-30T20:37:21.877Z,6.83
2023-01-30T20:47:28.593Z,6.33
2023-01-30T20:57:33.034Z,7.73
2023-01-30T21:07:38.002Z,9.60
2023-01-30T21:17:44.690Z,6.80
2023-01-30T21:27:50.000Z,6.13
2023-01-30T21:38:11.268Z,7.50
2023-01-30T21:48:15.682Z,6.10
2023-01-30T21:58:18.818Z,6.63
2023-01-30T22:08:28.947Z,6.00
2023-01-30T22:18:32.136Z,5.73
2023-01-30T22:28:39.706Z,7.07
2023-01-30T22:38:52.421Z,5.50
2023-01-30T22:48:54.599Z,6.10
2023-01-30T22:59:00.062Z,5.10
2023-01-30T23:09:06.135Z,5.90
2023-01-30T23:19:12.385Z,4.23
2023-01-30T23:29:16.496Z,5.43
2023-01-30T23:39:18.480Z,5.63
2023-01-30T23:49:20.628Z,5.20
2023-01-30T23:59:27.817Z,5.17
